createdAt,value
2023-01-29T00:01:42.960Z,-0.36
2023-01-29T00:04:10.669Z,-0.35
2023-01-29T00:06:40.021Z,-0.15
2023-01-29T00:09:07.507Z,-0.27
2023-01-29T00:11:36.040Z,-0.43
2023-01-29T00:14:03.567Z,-0.48
2023-01-29T00:16:31.084Z,-0.71
2023-01-29T00:18:58.671Z,-0.52
2023-01-29T00:21:26.201Z,-0.50
2023-01-29T00:23:56.128Z,-0.64
2023-01-29T00:26:23.842Z,-0.53
2023-01-29T00:28:51.333Z,-0.59
2023-01-29T00:31:20.798Z,-0.31
2023-01-29T00:33:48.927Z,-0.24
2023-01-29T00:36:17.835Z,-0.13
2023-01-29T00:38:46.394Z,-0.07
2023-01-29T00:41:34.463Z,0.20
2023-01-29T00:44:28.680Z,-0.11
2023-01-29T00:46:56.288Z,0.07
2023-01-29T00:49:24.216Z,0.01
2023-01-29T00:52:05.653Z,0.39
2023-01-29T00:54:33.355Z,0.63
2023-01-29T00:57:02.245Z,0.88
2023-01-29T00:59:29.979Z,1.39
2023-01-29T01:02:11.601Z,1.84
2023-01-29T01:04:39.107Z,1.52
2023-01-29T01:07:07.517Z,1.19
2023-01-29T01:09:53.676Z,1.25
2023-01-29T01:12:23.182Z,0.90
2023-01-29T01:14:50.959Z,1.35
2023-01-29T01:17:18.700Z,0.67
2023-01-29T01:19:46.196Z,0.91
2023-01-29T01:22:13.639Z,1.08
2023-01-29T01:24:41.174Z,1.53
2023-01-29T01:27:08.887Z,1.45
2023-01-29T01:29:37.895Z,1.55
2023-01-29T01:32:06.172Z,1.29
2023-01-29T01:34:33.752Z,1.03
2023-01-29T01:37:01.306Z,1.14
2023-01-29T01:39:28.838Z,1.48
2023-01-29T01:41:56.439Z,1.29
2023-01-29T01:45:04.261Z,1.26
2023-01-29T01:47:36.424Z,1.40
2023-01-29T01:50:08.800Z,1.81
2023-01-29T01:52:39.183Z,2.07
2023-01-29T01:55:07.949Z,2.40
2023-01-29T01:57:35.957Z,2.45
2023-01-29T02:00:11.581Z,2.55
2023-01-29T02:02:59.212Z,2.54
2023-01-29T02:05:45.757Z,2.55
2023-01-29T02:08:31.436Z,1.81
2023-01-29T02:10:59.224Z,1.11
2023-01-29T02:13:27.593Z,0.71
2023-01-29T02:15:56.370Z,0.63
2023-01-29T02:18:23.871Z,0.79
2023-01-29T02:21:08.455Z,0.61
2023-01-29T02:24:12.395Z,0.51
2023-01-29T02:26:56.459Z,-0.20
2023-01-29T02:29:34.534Z,0.00
2023-01-29T02:32:17.260Z,-0.02
2023-01-29T02:35:10.957Z,0.34
2023-01-29T02:37:46.507Z,0.61
2023-01-29T02:40:25.996Z,0.39
2023-01-29T02:43:03.163Z,-0.96
2023-01-29T02:45:34.960Z,-1.03
2023-01-29T02:48:04.193Z,-0.98
2023-01-29T02:50:38.441Z,-1.12
2023-01-29T02:53:10.353Z,-1.09
2023-01-29T02:55:43.367Z,-1.15
2023-01-29T02:58:14.366Z,-0.98
2023-01-29T03:00:47.654Z,-1.08
2023-01-29T03:03:19.255Z,-0.81
2023-01-29T03:05:54.966Z,-0.81
2023-01-29T03:08:36.948Z,-0.65
2023-01-29T03:11:07.512Z,-0.75
2023-01-29T03:13:41.815Z,-0.71
2023-01-29T03:16:19.404Z,-0.77
2023-01-29T03:18:53.578Z,-0.30
2023-01-29T03:21:43.333Z,0.20
2023-01-29T03:24:31.680Z,-0.64
2023-01-29T03:27:21.479Z,-1.04
2023-01-29T03:30:08.897Z,-1.03
2023-01-29T03:32:39.288Z,-1.08
2023-01-29T03:35:11.873Z,-1.02
2023-01-29T03:37:45.497Z,-1.01
2023-01-29T03:40:14.817Z,-1.11
2023-01-29T03:42:56.904Z,-1.01
2023-01-29T03:45:33.716Z,-1.31
2023-01-29T03:48:10.399Z,-1.49
2023-01-29T03:50:42.914Z,-1.31
2023-01-29T03:53:18.017Z,-1.12
2023-01-29T03:55:55.253Z,-1.48
2023-01-29T03:58:30.542Z,-1.37
2023-01-29T04:01:03.651Z,-1.08
2023-01-29T04:03:35.978Z,-1.16
2023-01-29T04:06:10.688Z,-1.74
2023-01-29T04:08:46.370Z,-1.60
2023-01-29T04:11:17.410Z,-1.67
2023-01-29T04:13:44.897Z,-1.24
2023-01-29T04:16:18.830Z,-0.68
2023-01-29T04:18:49.164Z,-1.09
2023-01-29T04:21:17.509Z,-1.29
2023-01-29T04:23:45.082Z,-1.63
2023-01-29T04:26:26.526Z,-1.70
2023-01-29T04:29:04.692Z,-1.83
2023-01-29T04:31:39.763Z,-1.60
2023-01-29T04:34:19.173Z,-1.05
2023-01-29T04:36:54.009Z,-1.19
2023-01-29T04:39:27.008Z,-1.65
2023-01-29T04:42:00.802Z,-1.93
2023-01-29T04:44:36.417Z,-1.77
2023-01-29T04:47:12.636Z,-1.80
2023-01-29T04:49:46.720Z,-1.74
2023-01-29T04:52:21.844Z,-1.85
2023-01-29T04:54:58.677Z,-1.56
2023-01-29T04:57:31.132Z,-1.58
2023-01-29T05:00:03.819Z,-1.67
2023-01-29T05:02:35.381Z,-1.46
2023-01-29T05:05:06.905Z,-1.11
2023-01-29T05:07:37.641Z,-1.68
2023-01-29T05:10:06.563Z,-1.62
2023-01-29T05:12:35.376Z,-1.45
2023-01-29T05:15:07.625Z,-1.66
2023-01-29T05:17:35.141Z,-1.89
2023-01-29T05:20:04.422Z,-2.24
2023-01-29T05:22:32.135Z,-1.83
2023-01-29T05:24:59.663Z,-1.68
2023-01-29T05:27:50.850Z,-1.77
2023-01-29T05:30:18.746Z,-1.95
2023-01-29T05:32:46.452Z,-1.91
2023-01-29T05:35:15.370Z,-1.58
2023-01-29T05:37:42.865Z,-1.05
2023-01-29T05:40:11.188Z,-1.47
2023-01-29T05:42:38.664Z,-1.22
2023-01-29T05:45:07.236Z,-1.68
2023-01-29T05:47:34.746Z,-1.73
2023-01-29T05:50:02.261Z,-1.83
2023-01-29T05:52:31.053Z,-2.12
2023-01-29T05:54:58.516Z,-2.17
2023-01-29T05:57:25.989Z,-2.06
2023-01-29T05:59:53.432Z,-2.23
2023-01-29T06:02:21.217Z,-1.90
2023-01-29T06:04:48.676Z,-1.21
2023-01-29T06:07:16.164Z,-1.41
2023-01-29T06:09:44.985Z,-1.07
2023-01-29T06:12:12.917Z,-0.98
2023-01-29T06:14:40.386Z,-0.51
2023-01-29T06:17:07.876Z,-0.80
2023-01-29T06:19:35.331Z,-1.00
2023-01-29T06:22:02.788Z,-2.01
2023-01-29T06:24:30.516Z,-2.09
2023-01-29T06:26:59.362Z,-2.11
2023-01-29T06:29:26.814Z,-2.29
2023-01-29T06:31:54.418Z,-2.48
2023-01-29T06:34:21.953Z,-2.36
2023-01-29T06:36:49.426Z,-1.96
2023-01-29T06:39:16.960Z,-2.28
2023-01-29T06:41:45.321Z,-2.10
2023-01-29T06:44:14.207Z,-2.16
2023-01-29T06:46:41.807Z,-1.91
2023-01-29T06:49:09.239Z,-1.29
2023-01-29T06:51:36.730Z,-1.73
2023-01-29T06:54:06.324Z,-1.97
2023-01-29T06:56:33.792Z,-2.10
2023-01-29T06:59:01.302Z,-2.29
2023-01-29T07:01:36.077Z,-2.15
2023-01-29T07:04:04.509Z,-2.20
2023-01-29T07:06:32.333Z,-2.33
2023-01-29T07:08:59.925Z,-2.51
2023-01-29T07:11:27.399Z,-2.58
2023-01-29T07:13:54.850Z,-2.30
2023-01-29T07:16:23.298Z,-1.63
2023-01-29T07:18:52.127Z,-1.44
2023-01-29T07:21:19.578Z,-1.72
2023-01-29T07:23:47.056Z,-1.51
2023-01-29T07:26:14.526Z,-1.22
2023-01-29T07:28:42.459Z,-1.31
2023-01-29T07:31:14.285Z,-1.25
2023-01-29T07:33:43.451Z,-2.24
2023-01-29T07:36:12.998Z,-2.48
2023-01-29T07:38:40.479Z,-2.30
2023-01-29T07:41:08.110Z,-2.34
2023-01-29T07:43:35.822Z,-2.28
2023-01-29T07:46:04.760Z,-2.27
2023-01-29T07:48:32.298Z,-2.51
2023-01-29T07:50:59.972Z,-2.37
2023-01-29T07:53:29.432Z,-2.08
2023-01-29T07:55:57.267Z,-1.64
2023-01-29T07:58:24.856Z,-1.70
2023-01-29T08:00:52.454Z,-1.88
2023-01-29T08:03:21.152Z,-2.11
2023-01-29T08:05:49.046Z,-2.45
2023-01-29T08:08:16.555Z,-2.29
2023-01-29T08:10:45.374Z,-2.23
2023-01-29T08:13:12.888Z,-2.33
2023-01-29T08:15:43.578Z,-2.20
2023-01-29T08:18:11.030Z,-1.45
2023-01-29T08:20:38.516Z,-1.28
2023-01-29T08:23:07.302Z,-1.93
2023-01-29T08:25:36.727Z,-1.91
2023-01-29T08:28:05.718Z,-1.82
2023-01-29T08:30:34.882Z,-1.61
2023-01-29T08:33:03.900Z,-1.89
2023-01-29T08:35:31.504Z,-2.00
2023-01-29T08:38:00.575Z,-1.86
2023-01-29T08:40:29.294Z,-1.96
2023-01-29T08:43:01.988Z,-1.77
2023-01-29T08:45:32.121Z,-1.83
2023-01-29T08:47:59.567Z,-2.23
2023-01-29T08:50:27.290Z,-2.42
2023-01-29T08:52:58.528Z,-1.90
2023-01-29T08:55:26.073Z,-1.91
2023-01-29T08:57:53.554Z,-2.06
2023-01-29T09:00:21.884Z,-2.07
2023-01-29T09:02:50.636Z,-2.22
2023-01-29T09:05:18.738Z,-2.21
2023-01-29T09:07:46.447Z,-2.32
2023-01-29T09:10:13.914Z,-2.07
2023-01-29T09:12:41.371Z,-1.76
2023-01-29T09:15:10.029Z,-1.44
2023-01-29T09:17:37.509Z,-1.34
2023-01-29T09:20:07.447Z,-1.28
2023-01-29T09:22:35.418Z,-1.07
2023-01-29T09:25:03.485Z,-1.16
2023-01-29T09:27:30.996Z,-0.32
2023-01-29T09:29:58.425Z,-0.18
2023-01-29T09:32:52.030Z,-0.67
2023-01-29T09:35:15.077Z,-1.34
2023-01-29T09:37:42.825Z,-1.26
2023-01-29T09:40:22.522Z,-1.30
2023-01-29T09:42:52.973Z,-1.25
2023-01-29T09:45:24.933Z,-0.88
2023-01-29T09:47:53.425Z,-0.28
2023-01-29T09:50:27.335Z,0.84
2023-01-29T09:52:58.003Z,1.71
2023-01-29T09:55:28.384Z,2.63
2023-01-29T09:57:59.115Z,1.99
2023-01-29T10:00:32.440Z,1.68
2023-01-29T10:03:16.527Z,0.89
2023-01-29T10:05:59.391Z,0.84
2023-01-29T10:09:02.829Z,0.77
2023-01-29T10:11:43.884Z,0.62
2023-01-29T10:14:19.736Z,0.88
2023-01-29T10:17:03.145Z,0.01
2023-01-29T10:19:58.185Z,-0.56
2023-01-29T10:22:46.770Z,-1.02
2023-01-29T10:25:17.010Z,-0.73
2023-01-29T10:27:50.965Z,-0.48
2023-01-29T10:30:27.021Z,-0.55
2023-01-29T10:32:56.378Z,-0.89
2023-01-29T10:35:26.163Z,-0.17
2023-01-29T10:37:55.844Z,-0.27
2023-01-29T10:40:25.071Z,-0.87
2023-01-29T10:43:00.707Z,-0.15
2023-01-29T10:45:37.846Z,0.46
2023-01-29T10:48:21.887Z,-0.51
2023-01-29T10:50:54.649Z,-0.50
2023-01-29T10:53:48.163Z,0.07
2023-01-29T10:56:29.751Z,-0.94
2023-01-29T10:59:02.116Z,-0.71
2023-01-29T11:01:29.601Z,0.19
2023-01-29T11:04:00.318Z,0.36
2023-01-29T11:06:31.555Z,1.99
2023-01-29T11:09:07.999Z,0.80
2023-01-29T11:11:39.854Z,1.29
2023-01-29T11:14:13.023Z,1.32
2023-01-29T11:16:45.585Z,0.19
2023-01-29T11:19:14.084Z,-0.33
2023-01-29T11:21:53.570Z,0.25
2023-01-29T11:24:22.368Z,1.17
2023-01-29T11:26:52.525Z,1.03
2023-01-29T11:29:39.981Z,-0.32
2023-01-29T11:32:12.460Z,-0.70
2023-01-29T11:34:58.662Z,0.16
2023-01-29T11:37:33.950Z,1.49
2023-01-29T11:40:02.919Z,0.62
2023-01-29T11:42:33.721Z,0.13
2023-01-29T11:45:01.305Z,1.10
2023-01-29T11:47:31.430Z,2.35
2023-01-29T11:50:02.325Z,2.08
2023-01-29T11:52:40.731Z,2.75
2023-01-29T11:55:18.608Z,2.46
2023-01-29T11:57:51.628Z,2.60
2023-01-29T12:00:23.538Z,1.83
2023-01-29T12:02:55.391Z,2.55
2023-01-29T12:05:25.348Z,1.70
2023-01-29T12:07:56.423Z,0.61
2023-01-29T12:10:34.269Z,1.71
2023-01-29T12:13:19.922Z,3.25
2023-01-29T12:15:49.447Z,2.29
2023-01-29T12:18:26.847Z,2.55
2023-01-29T12:20:58.558Z,2.04
2023-01-29T12:23:36.215Z,2.72
2023-01-29T12:26:10.541Z,2.63
2023-01-29T12:28:49.373Z,3.54
2023-01-29T12:31:25.109Z,2.43
2023-01-29T12:33:57.568Z,0.77
2023-01-29T12:36:29.235Z,-0.13
2023-01-29T12:38:56.725Z,0.31
2023-01-29T12:41:34.998Z,0.51
2023-01-29T12:44:07.067Z,1.57
2023-01-29T12:46:39.865Z,0.77
2023-01-29T12:49:16.266Z,1.92
2023-01-29T12:51:54.233Z,1.97
2023-01-29T12:54:27.443Z,2.39
2023-01-29T12:57:00.932Z,2.94
2023-01-29T12:59:32.494Z,1.61
2023-01-29T13:02:10.863Z,0.74
2023-01-29T13:04:43.179Z,0.13
2023-01-29T13:07:15.852Z,0.55
2023-01-29T13:09:46.636Z,0.55
2023-01-29T13:12:18.534Z,0.35
2023-01-29T13:14:50.713Z,-0.07
2023-01-29T13:17:24.584Z,0.18
2023-01-29T13:19:55.241Z,0.65
2023-01-29T13:22:26.551Z,1.58
2023-01-29T13:25:04.168Z,1.85
2023-01-29T13:27:36.130Z,1.11
2023-01-29T13:30:04.570Z,0.85
2023-01-29T13:32:33.718Z,0.82
2023-01-29T13:35:05.046Z,0.63
2023-01-29T13:37:34.995Z,1.57
2023-01-29T13:40:05.007Z,1.70
2023-01-29T13:42:43.523Z,2.37
2023-01-29T13:45:21.294Z,2.50
2023-01-29T13:47:52.000Z,2.45
2023-01-29T13:50:25.419Z,1.35
2023-01-29T13:52:58.644Z,1.62
2023-01-29T13:55:31.288Z,0.74
2023-01-29T13:58:01.597Z,0.86
2023-01-29T14:00:56.236Z,1.66
2023-01-29T14:04:04.663Z,1.40
2023-01-29T14:06:48.557Z,1.04
2023-01-29T14:09:51.061Z,1.16
2023-01-29T14:12:37.328Z,1.24
2023-01-29T14:15:23.311Z,1.10
2023-01-29T14:18:01.383Z,0.91
2023-01-29T14:20:45.158Z,0.82
2023-01-29T14:23:25.000Z,0.19
2023-01-29T14:25:52.697Z,-0.11
2023-01-29T14:28:24.885Z,0.32
2023-01-29T14:30:55.013Z,0.45
2023-01-29T14:33:28.330Z,0.40
2023-01-29T14:35:57.838Z,0.76
2023-01-29T14:38:28.905Z,0.77
2023-01-29T14:41:15.757Z,0.59
2023-01-29T14:43:43.287Z,1.40
2023-01-29T14:46:46.321Z,1.48
2023-01-29T14:49:13.776Z,1.58
2023-01-29T14:51:46.509Z,1.31
2023-01-29T14:54:21.944Z,0.95
2023-01-29T14:56:59.376Z,0.54
2023-01-29T14:59:33.970Z,0.44
2023-01-29T15:02:11.466Z,0.21
2023-01-29T15:04:44.927Z,0.37
2023-01-29T15:07:21.919Z,0.20
2023-01-29T15:09:57.280Z,0.30
2023-01-29T15:12:33.537Z,0.60
2023-01-29T15:15:07.958Z,0.61
2023-01-29T15:17:41.488Z,0.55
2023-01-29T15:20:29.873Z,0.26
2023-01-29T15:22:57.839Z,0.36
2023-01-29T15:25:26.019Z,0.35
2023-01-29T15:27:55.782Z,-0.10
2023-01-29T15:30:33.187Z,0.05
2023-01-29T15:33:03.991Z,-0.24
2023-01-29T15:35:36.040Z,0.42
2023-01-29T15:38:06.551Z,-0.02
2023-01-29T15:40:35.283Z,0.35
2023-01-29T15:43:02.796Z,-0.74
2023-01-29T15:45:32.103Z,-0.57
2023-01-29T15:48:06.491Z,-1.03
2023-01-29T15:50:37.509Z,-0.95
2023-01-29T15:53:10.266Z,-0.27
2023-01-29T15:55:37.863Z,0.07
2023-01-29T15:58:05.652Z,-0.28
2023-01-29T16:00:33.276Z,-0.38
2023-01-29T16:03:14.047Z,-0.11
2023-01-29T16:05:42.007Z,-0.26
2023-01-29T16:08:14.570Z,-0.12
2023-01-29T16:10:43.251Z,0.26
2023-01-29T16:13:19.894Z,0.30
2023-01-29T16:15:56.783Z,0.55
2023-01-29T16:18:29.713Z,0.62
2023-01-29T16:20:59.873Z,0.69
2023-01-29T16:23:30.489Z,0.63
2023-01-29T16:26:03.204Z,0.68
2023-01-29T16:28:31.321Z,0.65
2023-01-29T16:31:02.872Z,0.71
2023-01-29T16:33:36.231Z,0.84
2023-01-29T16:36:05.739Z,0.86
2023-01-29T16:38:36.595Z,0.85
2023-01-29T16:41:16.326Z,0.79
2023-01-29T16:43:54.085Z,0.57
2023-01-29T16:46:26.279Z,0.67
2023-01-29T16:48:55.391Z,0.53
2023-01-29T16:51:26.149Z,0.69
2023-01-29T16:53:56.778Z,1.03
2023-01-29T16:56:25.503Z,0.68
2023-01-29T16:58:55.285Z,0.77
2023-01-29T17:01:25.365Z,0.95
2023-01-29T17:04:05.716Z,1.15
2023-01-29T17:06:33.695Z,1.11
2023-01-29T17:09:01.819Z,1.13
2023-01-29T17:11:34.559Z,0.93
2023-01-29T17:14:02.244Z,0.77
2023-01-29T17:16:32.385Z,0.70
2023-01-29T17:19:02.016Z,0.60
2023-01-29T17:21:30.607Z,0.16
2023-01-29T17:23:58.087Z,0.03
2023-01-29T17:26:25.781Z,0.48
2023-01-29T17:28:54.670Z,0.61
2023-01-29T17:31:22.267Z,0.77
2023-01-29T17:33:49.853Z,0.85
2023-01-29T17:36:19.191Z,0.83
2023-01-29T17:38:47.835Z,0.82
2023-01-29T17:41:20.759Z,0.74
2023-01-29T17:43:48.543Z,0.81
2023-01-29T17:46:18.273Z,0.56
2023-01-29T17:48:46.392Z,0.44
2023-01-29T17:51:16.106Z,0.31
2023-01-29T17:53:46.954Z,0.09
2023-01-29T17:56:17.241Z,-0.09
2023-01-29T17:58:45.172Z,-0.37
2023-01-29T18:01:12.628Z,-0.09
2023-01-29T18:03:40.102Z,-0.38
2023-01-29T18:06:08.871Z,-0.41
2023-01-29T18:08:38.942Z,-0.50
2023-01-29T18:11:07.750Z,-0.47
2023-01-29T18:13:36.407Z,-0.54
2023-01-29T18:16:04.002Z,-0.50
2023-01-29T18:18:31.514Z,-0.57
2023-01-29T18:20:58.961Z,-0.94
2023-01-29T18:23:26.429Z,-1.22
2023-01-29T18:25:57.475Z,-1.46
2023-01-29T18:28:26.599Z,-1.49
2023-01-29T18:30:54.240Z,-1.45
2023-01-29T18:33:24.025Z,-1.28
2023-01-29T18:35:51.490Z,-1.38
2023-01-29T18:38:18.979Z,-1.34
2023-01-29T18:40:46.450Z,-1.23
2023-01-29T18:43:14.939Z,-1.19
2023-01-29T18:45:44.200Z,-1.08
2023-01-29T18:48:11.696Z,-1.02
2023-01-29T18:50:39.180Z,-0.68
2023-01-29T18:53:07.618Z,-0.71
2023-01-29T18:55:37.415Z,-0.76
2023-01-29T18:58:28.203Z,-0.36
2023-01-29T19:00:53.754Z,-0.71
2023-01-29T19:03:21.553Z,-0.30
2023-01-29T19:05:49.013Z,-0.28
2023-01-29T19:08:16.518Z,-0.62
2023-01-29T19:10:43.989Z,-0.61
2023-01-29T19:13:11.447Z,-0.51
2023-01-29T19:15:42.964Z,-0.28
2023-01-29T19:18:14.712Z,-0.07
2023-01-29T19:20:42.776Z,0.19
2023-01-29T19:23:10.458Z,0.11
2023-01-29T19:25:38.757Z,0.25
2023-01-29T19:28:07.573Z,0.05
2023-01-29T19:30:35.106Z,0.15
2023-01-29T19:33:03.004Z,0.44
2023-01-29T19:35:32.592Z,0.74
2023-01-29T19:38:00.396Z,0.86
2023-01-29T19:40:28.029Z,0.87
2023-01-29T19:42:56.429Z,1.09
2023-01-29T19:45:49.145Z,1.14
2023-01-29T19:48:14.397Z,1.22
2023-01-29T19:50:43.343Z,1.29
2023-01-29T19:53:10.824Z,1.25
2023-01-29T19:55:38.314Z,1.23
2023-01-29T19:58:05.810Z,1.31
2023-01-29T20:00:33.315Z,1.39
2023-01-29T20:03:00.820Z,1.38
2023-01-29T20:05:28.394Z,1.31
2023-01-29T20:07:57.288Z,1.27
2023-01-29T20:10:24.780Z,0.90
2023-01-29T20:12:52.313Z,0.76
2023-01-29T20:15:19.800Z,0.61
2023-01-29T20:17:47.269Z,0.35
2023-01-29T20:20:16.249Z,0.49
2023-01-29T20:22:44.557Z,0.35
2023-01-29T20:25:14.421Z,0.46
2023-01-29T20:27:42.095Z,0.49
2023-01-29T20:30:11.023Z,0.13
2023-01-29T20:32:38.505Z,0.05
2023-01-29T20:35:06.856Z,0.31
2023-01-29T20:37:34.322Z,0.26
2023-01-29T20:40:01.873Z,0.34
2023-01-29T20:42:30.737Z,0.35
2023-01-29T20:44:58.193Z,0.14
2023-01-29T20:47:25.733Z,0.16
2023-01-29T20:49:53.204Z,0.05
2023-01-29T20:52:20.674Z,-0.09
2023-01-29T20:54:48.293Z,-0.45
2023-01-29T20:57:16.096Z,-0.48
2023-01-29T20:59:45.095Z,-0.35
2023-01-29T21:02:12.598Z,-0.34
2023-01-29T21:04:40.072Z,-0.58
2023-01-29T21:07:07.523Z,-1.09
2023-01-29T21:09:35.061Z,-1.13
2023-01-29T21:12:05.215Z,-1.15
2023-01-29T21:14:32.875Z,-0.73
2023-01-29T21:17:02.187Z,-0.85
2023-01-29T21:19:30.793Z,-1.07
2023-01-29T21:21:58.816Z,-1.18
2023-01-29T21:24:26.875Z,-0.87
2023-01-29T21:26:54.549Z,-1.16
2023-01-29T21:29:22.047Z,-1.14
2023-01-29T21:31:49.633Z,-1.42
2023-01-29T21:34:18.513Z,-1.17
2023-01-29T21:36:46.733Z,-1.45
2023-01-29T21:39:20.983Z,-1.28
2023-01-29T21:42:08.252Z,-1.38
2023-01-29T21:44:36.391Z,-0.98
2023-01-29T21:47:12.107Z,-1.05
2023-01-29T21:49:45.030Z,-0.63
2023-01-29T21:52:13.898Z,-0.64
2023-01-29T21:54:41.834Z,-0.38
2023-01-29T21:57:14.787Z,-0.63
2023-01-29T21:59:42.718Z,-0.79
2023-01-29T22:02:14.463Z,-0.37
2023-01-29T22:04:42.196Z,-0.47
2023-01-29T22:07:11.882Z,-0.16
2023-01-29T22:09:39.720Z,-0.31
2023-01-29T22:12:08.624Z,-0.50
2023-01-29T22:14:36.117Z,-0.42
2023-01-29T22:17:03.878Z,-0.41
2023-01-29T22:19:31.370Z,-0.20
2023-01-29T22:21:58.819Z,-0.56
2023-01-29T22:24:27.875Z,-0.52
2023-01-29T22:26:55.360Z,-0.61
2023-01-29T22:29:23.029Z,-0.65
2023-01-29T22:31:50.494Z,-0.62
2023-01-29T22:34:17.962Z,-0.89
2023-01-29T22:36:45.426Z,-0.69
2023-01-29T22:39:13.402Z,-1.03
2023-01-29T22:41:42.216Z,-1.07
2023-01-29T22:44:09.850Z,-1.00
2023-01-29T22:46:37.328Z,-1.02
2023-01-29T22:49:04.900Z,-1.05
2023-01-29T22:51:32.440Z,-0.88
2023-01-29T22:54:01.079Z,-1.02
2023-01-29T22:56:29.667Z,-1.01
2023-01-29T22:59:00.016Z,-0.87
2023-01-29T23:01:29.332Z,-1.24
2023-01-29T23:03:57.056Z,-1.10
2023-01-29T23:06:25.235Z,-1.04
2023-01-29T23:08:52.991Z,-1.28
2023-01-29T23:11:23.448Z,-1.26
2023-01-29T23:13:52.687Z,-0.93
2023-01-29T23:16:29.171Z,-0.71
2023-01-29T23:18:57.500Z,-0.86
2023-01-29T23:21:27.108Z,-0.65
2023-01-29T23:23:55.272Z,-0.82
2023-01-29T23:26:40.803Z,-0.98
2023-01-29T23:29:08.329Z,-0.98
2023-01-29T23:31:37.167Z,-0.76
2023-01-29T23:34:04.770Z,-1.02
2023-01-29T23:36:32.237Z,-0.84
2023-01-29T23:38:59.689Z,-0.87
2023-01-29T23:41:27.149Z,-1.13
2023-01-29T23:43:54.643Z,-1.02
2023-01-29T23:46:22.154Z,-1.15
2023-01-29T23:48:50.973Z,-0.88
2023-01-29T23:51:18.447Z,-0.71
2023-01-29T23:53:45.910Z,-1.07
2023-01-29T23:56:13.523Z,-1.04
2023-01-29T23:58:41.041Z,-0.82
